Time;durP1;ratioP1;P1;durP2;ratioP2;P2;SDS_P1;SDS_P2;PMS_P1;PMS_P2;Temp;Humidity;BMP_temperature;BMP_pressure;BME280_temperature;BME280_humidity;BME280_pressure;Samples;Min_cycle;Max_cycle;Signal;HPM_P1;HPM_P2
2022/03/23 00:02:03;;;;;;;17.30;8.47;;;9.60;1.00;;;;;;5033539;28;20206;-64
2022/03/23 00:04:31;;;;;;;13.67;9.53;;;9.60;1.00;;;;;;5033719;28;20206;-63
2022/03/23 00:06:59;;;;;;;18.77;9.03;;;9.60;1.00;;;;;;5033353;28;20207;-63
2022/03/23 00:09:26;;;;;;;12.87;8.30;;;9.60;1.00;;;;;;5033604;28;20206;-64
2022/03/23 00:11:53;;;;;;;13.40;9.50;;;9.60;1.00;;;;;;5033068;28;20206;-64
2022/03/23 00:14:19;;;;;;;13.40;9.37;;;9.60;1.00;;;;;;5033312;28;20264;-64
2022/03/23 00:16:46;;;;;;;13.73;8.93;;;9.60;1.00;;;;;;5033102;28;20230;-63
2022/03/23 00:19:13;;;;;;;12.40;8.30;;;9.60;1.00;;;;;;5033030;28;20210;-64
2022/03/23 00:21:41;;;;;;;15.13;9.10;;;9.50;1.00;;;;;;5033435;28;20272;-64
2022/03/23 00:24:07;;;;;;;14.47;9.57;;;9.50;1.00;;;;;;5033280;28;20210;-64
2022/03/23 00:26:34;;;;;;;19.80;8.50;;;9.50;1.00;;;;;;5032975;28;20230;-63
2022/03/23 00:29:01;;;;;;;13.10;8.63;;;9.50;1.00;;;;;;5033167;28;20252;-64
2022/03/23 00:31:28;;;;;;;16.13;9.13;;;9.50;1.00;;;;;;5033040;28;20222;-64
2022/03/23 00:33:55;;;;;;;14.53;8.50;;;9.50;1.00;;;;;;5033536;28;20272;-63
2022/03/23 00:36:23;;;;;;;11.10;7.63;;;9.50;1.00;;;;;;5032431;28;20619;-63
2022/03/23 00:38:53;;;;;;;13.13;7.77;;;9.50;1.00;;;;;;5033076;28;20590;-63
2022/03/23 00:41:20;;;;;;;14.63;8.70;;;9.50;1.00;;;;;;5032941;28;20301;-63
2022/03/23 00:43:47;;;;;;;12.80;9.07;;;9.50;1.00;;;;;;5032864;28;20636;-63
2022/03/23 00:46:15;;;;;;;15.73;8.30;;;9.50;1.00;;;;;;5032573;28;20222;-63
2022/03/23 00:48:42;;;;;;;11.60;8.47;;;9.50;1.00;;;;;;5032914;28;20214;-63
2022/03/23 00:51:08;;;;;;;13.27;8.10;;;9.50;1.00;;;;;;5033265;28;20206;-63
2022/03/23 00:53:35;;;;;;;12.10;8.10;;;9.40;1.00;;;;;;5032575;28;20211;-63
2022/03/23 00:56:04;;;;;;;11.57;8.23;;;9.40;1.00;;;;;;5032430;28;20230;-64
2022/03/23 00:58:31;;;;;;;11.50;8.10;;;9.30;1.00;;;;;;5032391;28;20206;-64
2022/03/23 01:00:58;;;;;;;11.50;8.20;;;9.30;1.00;;;;;;5032522;28;20214;-64
2022/03/23 01:03:25;;;;;;;13.80;8.20;;;9.20;1.00;;;;;;5032602;28;20621;-63
2022/03/23 01:05:52;;;;;;;13.23;8.37;;;9.20;1.00;;;;;;5032251;28;20642;-63
2022/03/23 01:08:18;;;;;;;12.93;9.10;;;9.10;1.00;;;;;;5032493;28;20555;-63
2022/03/23 01:10:45;;;;;;;12.77;8.77;;;9.00;1.00;;;;;;5032243;28;20272;-63
2022/03/23 01:13:13;;;;;;;12.37;8.60;;;9.00;1.00;;;;;;5032314;28;20633;-63
2022/03/23 01:15:40;;;;;;;15.77;8.93;;;9.00;1.00;;;;;;5032138;28;20579;-63
2022/03/23 01:18:07;;;;;;;12.90;8.40;;;9.00;1.00;;;;;;5032127;28;20739;-63
2022/03/23 01:20:34;;;;;;;13.63;8.97;;;9.00;1.00;;;;;;5032398;28;20612;-63
2022/03/23 01:23:00;;;;;;;15.50;8.63;;;9.00;1.00;;;;;;5031984;28;20213;-63
2022/03/23 01:25:27;;;;;;;13.63;8.47;;;9.00;1.00;;;;;;5032086;28;20677;-63
2022/03/23 01:27:54;;;;;;;14.70;8.60;;;9.00;1.00;;;;;;5031669;28;20692;-63
2022/03/23 01:30:22;;;;;;;12.17;8.87;;;9.00;1.00;;;;;;5032091;28;20205;-63
2022/03/23 01:32:49;;;;;;;16.43;8.97;;;9.10;1.00;;;;;;5031675;28;20210;-63
2022/03/23 01:35:15;;;;;;;13.60;8.33;;;9.10;1.00;;;;;;5031993;28;20717;-63
2022/03/23 01:37:43;;;;;;;14.20;8.33;;;9.10;1.00;;;;;;5031837;28;20206;-63
2022/03/23 01:40:11;;;;;;;17.47;9.03;;;9.10;1.00;;;;;;5031704;28;20202;-63
2022/03/23 01:42:38;;;;;;;14.53;8.40;;;9.10;1.00;;;;;;5032304;28;20217;-63
2022/03/23 01:45:06;;;;;;;13.33;8.57;;;9.20;1.00;;;;;;5031858;28;20226;-63
2022/03/23 01:47:35;;;;;;;16.10;8.27;;;9.20;1.00;;;;;;5031758;28;20202;-63
2022/03/23 01:50:03;;;;;;;13.23;7.60;;;9.20;1.00;;;;;;5031920;28;20542;-63
2022/03/23 01:52:32;;;;;;;15.53;8.50;;;9.20;1.00;;;;;;5031699;28;20608;-63
2022/03/23 01:55:01;;;;;;;12.17;8.30;;;9.10;1.00;;;;;;5031720;28;20716;-63
2022/03/23 01:57:29;;;;;;;13.33;8.60;;;9.10;1.00;;;;;;5031511;28;20753;-63
2022/03/23 01:59:55;;;;;;;14.30;8.50;;;9.00;1.00;;;;;;5032050;28;20627;-63
2022/03/23 02:02:22;;;;;;;14.07;8.23;;;8.90;1.00;;;;;;5031682;28;20207;-63
2022/03/23 02:04:50;;;;;;;16.97;9.07;;;8.90;1.00;;;;;;5031606;28;20360;-63
2022/03/23 02:07:17;;;;;;;14.97;8.43;;;8.90;1.00;;;;;;5031667;28;20249;-63
2022/03/23 02:09:44;;;;;;;14.57;9.50;;;8.80;1.00;;;;;;5031602;28;20202;-63
2022/03/23 02:12:12;;;;;;;14.00;8.80;;;8.80;1.00;;;;;;5031856;28;20210;-63
2022/03/23 02:14:39;;;;;;;13.97;9.63;;;8.80;1.00;;;;;;5031472;28;20230;-63
2022/03/23 02:17:06;;;;;;;14.00;8.83;;;8.80;1.00;;;;;;5031467;28;20233;-63
2022/03/23 02:19:33;;;;;;;13.53;9.27;;;8.70;1.00;;;;;;5031427;28;20664;-63
2022/03/23 02:22:02;;;;;;;13.47;9.43;;;8.70;1.00;;;;;;5031623;28;20213;-63
2022/03/23 02:24:30;;;;;;;14.47;9.40;;;8.60;1.00;;;;;;5031696;28;20229;-63
2022/03/23 02:26:58;;;;;;;13.03;8.77;;;8.60;1.00;;;;;;5031110;28;20615;-63
2022/03/23 02:29:29;;;;;;;13.07;8.80;;;8.60;1.00;;;;;;5031833;28;20700;-63
2022/03/23 02:31:56;;;;;;;15.50;8.23;;;8.60;1.00;;;;;;5031362;28;20209;-63
2022/03/23 02:34:23;;;;;;;13.73;9.00;;;8.50;1.00;;;;;;5031299;28;20306;-63
2022/03/23 02:36:50;;;;;;;13.33;8.97;;;8.50;1.00;;;;;;5030702;28;20237;-63
2022/03/23 02:39:18;;;;;;;13.53;8.60;;;8.40;1.00;;;;;;5031603;28;20229;-63
2022/03/23 02:41:45;;;;;;;13.03;8.07;;;8.40;1.00;;;;;;5031470;28;20235;-63
2022/03/23 02:44:14;;;;;;;13.43;8.87;;;8.30;1.00;;;;;;5031404;28;20213;-63
2022/03/23 02:46:41;;;;;;;16.70;9.17;;;7.90;1.00;;;;;;5035080;28;20283;-63
2022/03/23 02:49:08;;;;;;;15.27;8.77;;;7.80;1.00;;;;;;5035035;28;20264;-63
2022/03/23 02:51:34;;;;;;;14.63;8.67;;;7.80;1.00;;;;;;5035072;28;20213;-63
2022/03/23 03:02:36;;;;;;;15.83;9.57;;;7.50;1.00;;;;;;5035425;28;20204;-63
2022/03/23 03:05:04;;;;;;;18.37;10.03;;;7.40;1.00;;;;;;5034841;28;20232;-63
2022/03/23 03:08:44;;;;;;;18.27;10.63;;;7.30;1.00;;;;;;5034404;28;20209;-63
2022/03/23 03:10:18;;;;;;;16.90;10.53;;;7.20;1.00;;;;;;5034872;28;20210;-63
2022/03/23 03:12:46;;;;;;;15.87;9.70;;;7.20;1.00;;;;;;5034885;28;20699;-63
2022/03/23 03:15:14;;;;;;;17.07;10.57;;;7.20;1.00;;;;;;5034659;28;20473;-63
2022/03/23 03:17:40;;;;;;;16.33;9.33;;;7.20;1.00;;;;;;5034144;28;20227;-64
2022/03/23 03:20:08;;;;;;;16.87;10.20;;;7.10;1.00;;;;;;5034475;28;20206;-63
2022/03/23 03:22:35;;;;;;;15.83;9.87;;;7.10;1.00;;;;;;5034377;28;20207;-63
2022/03/23 03:25:03;;;;;;;15.50;9.27;;;7.10;1.00;;;;;;5034391;28;20223;-63
2022/03/23 03:27:32;;;;;;;16.07;9.00;;;7.10;1.00;;;;;;5034368;28;20206;-63
2022/03/23 03:30:00;;;;;;;18.17;10.37;;;7.00;1.00;;;;;;5034257;28;20627;-63
2022/03/23 03:32:27;;;;;;;15.73;10.00;;;7.00;1.00;;;;;;5034349;28;20206;-63
2022/03/23 03:34:53;;;;;;;17.73;10.00;;;6.90;1.00;;;;;;5033841;28;20859;-63
2022/03/23 03:37:20;;;;;;;16.33;9.60;;;6.90;1.00;;;;;;5033747;28;20288;-63
2022/03/23 03:39:47;;;;;;;15.77;9.23;;;6.80;1.00;;;;;;5034110;28;20211;-63
2022/03/23 03:42:14;;;;;;;16.50;9.27;;;6.80;1.00;;;;;;5034005;28;20206;-63
2022/03/23 03:44:41;;;;;;;14.27;9.03;;;6.70;1.00;;;;;;5034075;28;20223;-63
2022/03/23 03:47:10;;;;;;;13.77;9.20;;;6.70;1.00;;;;;;5033772;28;20711;-63
2022/03/23 03:49:36;;;;;;;15.33;9.27;;;6.70;1.00;;;;;;5033920;28;20210;-63
2022/03/23 03:52:03;;;;;;;14.63;9.27;;;6.70;1.00;;;;;;5034112;28;20206;-63
2022/03/23 03:54:30;;;;;;;16.07;8.80;;;6.60;1.00;;;;;;5034044;28;20249;-63
2022/03/23 03:56:57;;;;;;;16.93;9.80;;;6.60;1.00;;;;;;5033149;28;20280;-63
2022/03/23 03:59:24;;;;;;;15.17;9.73;;;6.60;1.00;;;;;;5033692;28;20445;-63
2022/03/23 04:01:51;;;;;;;19.10;10.10;;;6.60;1.00;;;;;;5033828;28;20738;-63
2022/03/23 04:04:18;;;;;;;16.00;9.93;;;6.60;1.00;;;;;;5033323;28;20256;-63
2022/03/23 04:06:45;;;;;;;17.67;9.70;;;6.60;1.00;;;;;;5033673;28;20202;-63
2022/03/23 04:09:12;;;;;;;12.80;8.40;;;6.60;1.00;;;;;;5033734;28;20214;-63
2022/03/23 04:11:38;;;;;;;14.90;8.73;;;6.50;1.00;;;;;;5033337;28;20619;-63
2022/03/23 04:14:05;;;;;;;13.90;9.07;;;6.50;1.00;;;;;;5033803;28;20495;-63
2022/03/23 04:16:32;;;;;;;16.10;8.77;;;6.60;1.00;;;;;;5032884;28;20713;-63
2022/03/23 04:18:58;;;;;;;13.67;9.03;;;6.60;1.00;;;;;;5033308;28;20951;-63
2022/03/23 04:21:28;;;;;;;14.93;8.73;;;6.60;1.00;;;;;;5033280;28;20453;-63
2022/03/23 04:23:55;;;;;;;20.00;8.47;;;6.60;1.00;;;;;;5033608;28;20206;-63
2022/03/23 04:26:21;;;;;;;17.57;8.43;;;6.60;1.00;;;;;;5032879;28;21037;-63
2022/03/23 04:28:48;;;;;;;15.87;8.63;;;6.70;1.00;;;;;;5033027;28;20214;-63
2022/03/23 04:31:15;;;;;;;13.60;8.97;;;6.70;1.00;;;;;;5033036;28;20212;-63
2022/03/23 04:33:41;;;;;;;18.00;9.23;;;6.70;1.00;;;;;;5033191;28;20791;-63
2022/03/23 04:36:09;;;;;;;14.65;8.75;;;6.60;1.00;;;;;;5032727;28;20513;-63
2022/03/23 04:38:37;;;;;;;15.97;9.10;;;6.50;1.00;;;;;;5033009;28;20453;-63
2022/03/23 04:41:04;;;;;;;19.77;9.63;;;6.40;1.00;;;;;;5033101;28;20519;-63
2022/03/23 04:43:31;;;;;;;17.27;8.90;;;6.30;1.00;;;;;;5032902;28;20449;-63
2022/03/23 04:45:57;;;;;;;17.33;9.37;;;6.20;1.00;;;;;;5032432;28;20477;-63
2022/03/23 04:48:24;;;;;;;17.37;9.63;;;6.10;1.00;;;;;;5033123;28;20449;-63
2022/03/23 04:50:51;;;;;;;18.70;9.27;;;6.00;1.00;;;;;;5032755;28;20455;-64
2022/03/23 04:53:18;;;;;;;20.53;9.73;;;5.90;1.00;;;;;;5032822;28;20449;-63
2022/03/23 04:55:46;;;;;;;17.20;9.03;;;5.80;1.00;;;;;;5032656;28;20551;-63
2022/03/23 04:58:12;;;;;;;17.57;10.63;;;5.70;1.00;;;;;;5032015;28;20543;-63
2022/03/23 05:00:40;;;;;;;18.63;10.40;;;5.70;1.00;;;;;;5032820;28;20453;-63
2022/03/23 05:03:07;;;;;;;17.00;10.10;;;5.70;1.00;;;;;;5032602;28;20460;-63
2022/03/23 05:05:34;;;;;;;17.07;9.83;;;5.60;1.00;;;;;;5032626;28;20484;-63
2022/03/23 05:08:01;;;;;;;17.77;9.67;;;5.50;1.00;;;;;;5031331;28;20504;-63
2022/03/23 05:10:28;;;;;;;19.27;10.63;;;5.50;1.00;;;;;;5032445;28;20453;-63
2022/03/23 05:12:56;;;;;;;17.77;10.17;;;5.40;1.00;;;;;;5032244;28;20539;-63
2022/03/23 05:15:23;;;;;;;17.87;11.43;;;5.30;1.00;;;;;;5032290;28;20482;-63
2022/03/23 05:17:49;;;;;;;21.33;10.93;;;5.30;1.00;;;;;;5032326;28;20550;-63
2022/03/23 05:20:18;;;;;;;21.87;10.47;;;5.30;1.00;;;;;;5032140;28;20464;-63
2022/03/23 05:22:44;;;;;;;20.80;10.97;;;5.30;1.00;;;;;;5032405;28;20452;-63
2022/03/23 05:25:13;;;;;;;19.73;10.97;;;5.30;1.00;;;;;;5031774;28;20906;-63
2022/03/23 05:27:41;;;;;;;20.33;11.87;;;5.40;1.00;;;;;;5031900;28;20457;-63
2022/03/23 05:30:12;;;;;;;16.87;10.80;;;5.40;1.00;;;;;;5032105;28;20502;-63
2022/03/23 05:32:39;;;;;;;21.53;11.17;;;5.40;1.00;;;;;;5031968;28;20448;-63
2022/03/23 05:35:08;;;;;;;20.10;10.90;;;5.40;1.00;;;;;;5031988;28;20496;-63
2022/03/23 05:37:34;;;;;;;19.63;10.27;;;5.40;1.00;;;;;;5031651;28;20492;-63
2022/03/23 05:40:02;;;;;;;17.00;10.63;;;5.40;1.00;;;;;;5032147;28;20585;-63
2022/03/23 05:42:29;;;;;;;15.97;10.10;;;5.40;1.00;;;;;;5032049;28;20456;-64
2022/03/23 05:44:56;;;;;;;15.67;9.67;;;5.40;1.00;;;;;;5031922;28;20473;-63
2022/03/23 05:47:24;;;;;;;20.70;10.83;;;5.40;1.00;;;;;;5031690;28;20791;-63
2022/03/23 05:49:50;;;;;;;24.20;10.40;;;5.40;1.00;;;;;;5031738;28;20892;-63
2022/03/23 05:52:17;;;;;;;16.03;9.70;;;5.50;1.00;;;;;;5030500;28;20935;-65
2022/03/23 05:54:44;;;;;;;18.93;10.00;;;5.50;1.00;;;;;;5030446;28;20485;-62
2022/03/23 05:57:11;;;;;;;23.77;10.43;;;5.50;1.00;;;;;;5031261;28;20477;-62
2022/03/23 05:59:37;;;;;;;18.67;9.53;;;5.60;1.00;;;;;;5031905;28;20548;-62
2022/03/23 06:02:04;;;;;;;16.83;9.30;;;5.70;1.00;;;;;;5031370;28;20816;-62
2022/03/23 06:04:32;;;;;;;16.37;9.10;;;5.70;1.00;;;;;;5031323;28;20457;-62
2022/03/23 06:06:59;;;;;;;13.03;8.57;;;5.80;1.00;;;;;;5031065;28;20495;-61
2022/03/23 06:09:26;;;;;;;16.33;10.13;;;5.90;1.00;;;;;;5031838;28;20453;-62
2022/03/23 06:11:52;;;;;;;20.53;10.07;;;6.00;1.00;;;;;;5031549;28;20457;-62
2022/03/23 06:14:19;;;;;;;20.90;9.70;;;6.20;1.00;;;;;;5031041;28;20863;-62
2022/03/23 06:16:45;;;;;;;17.47;10.10;;;6.40;1.00;;;;;;5030970;28;20445;-61
2022/03/23 06:19:13;;;;;;;17.03;9.53;;;6.60;1.00;;;;;;5033369;28;20510;-59
2022/03/23 06:21:42;;;;;;;19.23;9.00;;;6.70;1.00;;;;;;5035363;28;20526;-61
2022/03/23 06:24:08;;;;;;;19.70;9.77;;;6.80;1.00;;;;;;5035238;28;20452;-61
2022/03/23 06:26:35;;;;;;;18.13;9.73;;;7.00;1.00;;;;;;5035125;28;20519;-62
2022/03/23 06:29:02;;;;;;;16.23;9.57;;;7.10;1.00;;;;;;5035596;28;20206;-64
2022/03/23 06:31:28;;;;;;;17.20;9.37;;;7.30;1.00;;;;;;5028227;28;20715;-65
2022/03/23 06:33:55;;;;;;;16.83;9.30;;;7.30;1.00;;;;;;5034666;28;20453;-64
2022/03/23 06:36:22;;;;;;;13.97;8.60;;;7.40;1.00;;;;;;5034299;28;20720;-64
2022/03/23 06:38:51;;;;;;;17.77;10.37;;;7.40;1.00;;;;;;5036979;28;20234;-66
2022/03/23 06:41:17;;;;;;;15.73;9.63;;;7.50;1.00;;;;;;5054967;28;20206;-64
2022/03/23 06:43:44;;;;;;;17.03;10.00;;;7.60;1.00;;;;;;5054199;28;20212;-63
2022/03/23 06:46:11;;;;;;;17.00;10.40;;;7.70;1.00;;;;;;5054210;28;20614;-63
2022/03/23 06:48:38;;;;;;;19.97;11.23;;;7.90;1.00;;;;;;5054011;28;20199;-64
2022/03/23 06:51:05;;;;;;;19.07;10.07;;;8.10;1.00;;;;;;5043752;28;20215;-68
2022/03/23 06:53:32;;;;;;;16.03;10.10;;;8.30;1.00;;;;;;5034674;28;20624;-64
2022/03/23 06:56:00;;;;;;;15.07;9.50;;;8.50;1.00;;;;;;5033317;28;20641;-64
2022/03/23 06:58:26;;;;;;;20.47;11.00;;;8.70;1.00;;;;;;5034254;28;20363;-64
2022/03/23 07:00:54;;;;;;;22.93;12.70;;;8.80;1.00;;;;;;5033653;28;20206;-64
2022/03/23 07:03:21;;;;;;;19.33;11.03;;;9.00;1.00;;;;;;5034209;28;20214;-63
2022/03/23 07:05:48;;;;;;;16.70;10.17;;;9.20;1.00;;;;;;5078616;22;20640;-63
2022/03/23 07:11:02;;;;;;;17.33;11.03;;;9.50;1.00;;;;;;5064515;28;20564;-64
2022/03/23 07:13:29;;;;;;;19.87;11.47;;;9.70;1.00;;;;;;5073386;28;20208;-63
2022/03/23 07:15:55;;;;;;;21.47;10.90;;;9.80;1.00;;;;;;5086852;28;20236;-64
2022/03/23 07:18:22;;;;;;;17.03;11.07;;;10.00;1.00;;;;;;5094270;28;20342;-64
2022/03/23 07:20:49;;;;;;;18.03;11.33;;;10.10;1.00;;;;;;5093761;28;20259;-64
2022/03/23 07:23:15;;;;;;;16.87;10.70;;;10.20;1.00;;;;;;5094479;28;20208;-64
2022/03/23 07:25:42;;;;;;;17.80;10.33;;;10.40;1.00;;;;;;5093466;28;20228;-64
2022/03/23 07:28:10;;;;;;;18.70;11.00;;;10.50;1.00;;;;;;5093581;28;20623;-65
2022/03/23 07:30:37;;;;;;;18.87;10.50;;;10.70;1.00;;;;;;5092386;28;20210;-65
2022/03/23 07:33:04;;;;;;;20.27;10.87;;;10.90;1.00;;;;;;5094186;28;20208;-65
2022/03/23 07:35:31;;;;;;;19.57;11.83;;;11.10;1.00;;;;;;5093806;28;20278;-64
2022/03/23 07:37:58;;;;;;;21.97;11.33;;;11.20;1.00;;;;;;5093164;28;20230;-63
2022/03/23 07:40:25;;;;;;;16.23;10.40;;;11.40;1.00;;;;;;5093606;28;20267;-61
2022/03/23 07:42:51;;;;;;;16.47;10.67;;;11.60;1.00;;;;;;5093152;28;20217;-65
2022/03/23 07:45:19;;;;;;;17.63;11.13;;;11.70;1.00;;;;;;5093346;28;20745;-63
2022/03/23 07:47:46;;;;;;;17.20;10.67;;;11.90;1.00;;;;;;5093150;28;20845;-65
2022/03/23 07:50:13;;;;;;;18.37;11.63;;;12.00;1.00;;;;;;5092923;28;20629;-65
2022/03/23 07:52:40;;;;;;;17.30;11.87;;;12.10;1.00;;;;;;5093641;28;20204;-63
2022/03/23 07:55:07;;;;;;;16.27;10.70;;;12.20;1.00;;;;;;5092891;28;20598;-69
2022/03/23 07:57:34;;;;;;;18.53;10.47;;;12.40;1.00;;;;;;5092868;28;20283;-63
2022/03/23 08:00:00;;;;;;;19.63;11.00;;;12.40;1.00;;;;;;5093178;28;20265;-64
2022/03/23 08:02:29;;;;;;;22.47;11.17;;;12.60;1.00;;;;;;5093495;28;20215;-64
2022/03/23 08:04:55;;;;;;;18.27;10.30;;;12.70;1.00;;;;;;5093199;28;20228;-64
2022/03/23 08:07:22;;;;;;;19.10;11.13;;;12.80;1.00;;;;;;5091847;28;20212;-64
2022/03/23 08:09:49;;;;;;;17.17;10.17;;;12.90;1.00;;;;;;5092840;28;20211;-63
2022/03/23 08:12:17;;;;;;;18.57;10.60;;;13.00;1.00;;;;;;5092203;28;20208;-64
2022/03/23 08:14:44;;;;;;;16.07;10.27;;;13.20;1.00;;;;;;5093126;28;20315;-63
2022/03/23 08:17:11;;;;;;;15.20;11.03;;;13.30;1.00;;;;;;5093044;28;20227;-66
2022/03/23 08:19:39;;;;;;;;;;;13.50;1.00;;;;;;5093136;28;20044;-64
2022/03/23 08:22:05;;;;;;;;;;;13.70;2.20;;;;;;5093190;28;19985;-66
2022/03/23 08:24:32;;;;;;;;;;;13.80;1.00;;;;;;5092704;28;20382;-63
2022/03/23 08:26:59;;;;;;;;;;;14.00;2.10;;;;;;5093275;28;19973;-65
2022/03/23 08:29:26;;;;;;;;;;;14.10;1.90;;;;;;5093114;28;19920;-63
2022/03/23 08:31:53;;;;;;;;;;;14.20;1.90;;;;;;5093039;28;19973;-65
2022/03/23 08:34:19;;;;;;;;;;;14.30;4.00;;;;;;5092900;28;20410;-63
2022/03/23 08:36:47;;;;;;;;;;;14.40;3.50;;;;;;5092286;28;19920;-65
2022/03/23 08:39:13;;;;;;;;;;;14.50;2.40;;;;;;5092578;28;19927;-65
2022/03/23 08:41:40;;;;;;;;;;;14.60;3.20;;;;;;5092342;28;20324;-64
2022/03/23 08:44:07;;;;;;;;;;;14.70;2.60;;;;;;5093299;28;19951;-64
2022/03/23 08:46:33;;;;;;;;;;;14.80;1.20;;;;;;5092200;28;19954;-66
2022/03/23 08:49:00;;;;;;;20.60;13.30;;;14.90;1.90;;;;;;5091169;28;20415;-64
2022/03/23 08:51:27;;;;;;;18.38;12.90;;;15.00;4.10;;;;;;5090820;28;20421;-64
2022/03/23 08:53:55;;;;;;;18.67;12.00;;;15.00;2.00;;;;;;5092222;28;20276;-62
2022/03/23 08:56:21;;;;;;;17.17;11.37;;;15.10;1.70;;;;;;5092085;28;20221;-61
2022/03/23 08:58:49;;;;;;;19.00;11.30;;;15.10;2.60;;;;;;5091732;28;20569;-61
2022/03/23 09:01:16;;;;;;;20.48;13.63;;;15.00;1.50;;;;;;5090914;28;20417;-61
2022/03/23 09:03:43;;;;;;;19.98;12.75;;;15.20;2.30;;;;;;5090940;28;20422;-61
2022/03/23 09:06:10;;;;;;;18.33;13.07;;;15.40;3.30;;;;;;5090186;28;20414;-61
2022/03/23 09:08:37;;;;;;;19.23;13.43;;;15.50;5.50;;;;;;5091162;28;20502;-62
2022/03/23 09:11:05;;;;;;;18.80;13.37;;;15.60;6.50;;;;;;5090212;28;20468;-67
2022/03/23 09:13:32;;;;;;;20.80;13.68;;;15.80;6.30;;;;;;5091457;28;20426;-65
2022/03/23 09:15:58;;;;;;;21.77;14.15;;;16.00;6.30;;;;;;5090170;28;20410;-65
2022/03/23 09:18:26;;;;;;;18.67;13.57;;;15.90;4.00;;;;;;5090695;28;20422;-66
2022/03/23 09:20:53;;;;;;;18.90;14.07;;;15.70;3.10;;;;;;5090071;28;20520;-63
2022/03/23 09:23:20;;;;;;;20.23;13.55;;;15.80;4.40;;;;;;5090388;28;20459;-65
2022/03/23 09:25:50;;;;;;;19.15;13.75;;;16.00;17.30;;;;;;5090743;28;20505;-68
2022/03/23 09:28:19;;;;;;;20.45;13.27;;;16.20;14.50;;;;;;5090280;28;20409;-64
2022/03/23 09:30:45;;;;;;;19.50;13.05;;;16.30;9.20;;;;;;5089972;28;20410;-64
2022/03/23 09:33:12;;;;;;;20.77;13.18;;;16.50;7.30;;;;;;5090523;28;20444;-65
2022/03/23 09:35:39;;;;;;;20.30;13.87;;;16.30;4.20;;;;;;5090256;28;20475;-63
2022/03/23 09:38:05;;;;;;;19.85;13.45;;;16.60;5.10;;;;;;5090068;28;20932;-66
2022/03/23 09:40:32;;;;;;;21.85;13.93;;;16.70;7.70;;;;;;5089807;28;20406;-65
2022/03/23 09:43:00;;;;;;;21.75;13.45;;;16.80;9.30;;;;;;5090459;28;20417;-64
2022/03/23 09:45:38;;;;;;;20.88;13.65;;;16.90;8.60;;;;;;5090059;28;20414;-65
2022/03/23 09:48:09;;;;;;;20.70;13.67;;;17.00;6.40;;;;;;5090490;28;21124;-66
2022/03/23 09:50:37;;;;;;;17.90;13.52;;;17.10;9.30;;;;;;5082879;28;21124;-64
2022/03/23 09:53:05;;;;;;;18.88;13.30;;;17.30;10.30;;;;;;5069321;28;20790;-66
2022/03/23 09:55:32;;;;;;;21.42;14.23;;;17.30;10.50;;;;;;5070015;28;20416;-65
2022/03/23 09:58:02;;;;;;;20.05;14.88;;;17.30;7.50;;;;;;5069051;28;20786;-66
2022/03/23 10:00:35;;;;;;;20.40;15.05;;;17.40;7.40;;;;;;5069541;28;20419;-65
2022/03/23 10:03:41;;;;;;;22.85;14.57;;;17.40;8.00;;;;;;5069832;28;20834;-65
2022/03/23 10:06:42;;;;;;;19.23;12.60;;;17.50;9.30;;;;;;5069935;28;20860;-66
2022/03/23 10:09:43;;;;;;;21.83;14.20;;;17.70;11.80;;;;;;5069821;28;20901;-66
2022/03/23 10:13:13;;;;;;;22.63;13.95;;;17.80;10.60;;;;;;5055647;28;20412;-67
2022/03/23 10:16:41;;;;;;;20.50;15.02;;;17.90;10.50;;;;;;5069193;28;20411;-68
2022/03/23 10:19:07;;;;;;;18.92;14.05;;;17.70;14.60;;;;;;5069454;28;20431;-69
2022/03/23 10:21:37;;;;;;;19.75;15.07;;;17.90;22.70;;;;;;5068972;28;20411;-68
2022/03/23 10:24:33;;;;;;;22.23;14.75;;;17.60;8.10;;;;;;5069710;28;21070;-69
2022/03/23 10:27:00;;;;;;;23.13;14.80;;;17.70;9.00;;;;;;5069794;28;20477;-67
2022/03/23 10:29:27;;;;;;;23.87;15.57;;;17.90;11.70;;;;;;5072008;28;20411;-67
2022/03/23 10:32:08;;;;;;;21.83;15.30;;;18.10;13.80;;;;;;5070287;28;20498;-69
2022/03/23 10:34:47;;;;;;;20.42;13.85;;;17.90;9.10;;;;;;5069994;28;20427;-67
2022/03/23 10:37:16;;;;;;;21.33;14.30;;;18.10;11.20;;;;;;5070063;28;20512;-65
2022/03/23 10:39:43;;;;;;;22.23;15.45;;;18.20;11.50;;;;;;5068757;28;20476;-63
2022/03/23 10:42:13;;;;;;;20.23;14.75;;;18.20;10.20;;;;;;5068215;28;20504;-70
2022/03/23 10:44:41;;;;;;;23.95;15.68;;;18.30;13.00;;;;;;5068911;28;20419;-69
2022/03/23 10:47:21;;;;;;;21.88;14.57;;;18.50;14.30;;;;;;5069119;28;20415;-66
2022/03/23 10:49:48;;;;;;;21.20;14.93;;;18.50;16.80;;;;;;5068655;28;20522;-66
2022/03/23 10:52:16;;;;;;;23.90;15.52;;;18.70;13.70;;;;;;5068767;28;20457;-66
2022/03/23 10:54:54;;;;;;;22.23;15.63;;;18.70;13.00;;;;;;5069237;28;20417;-67
2022/03/23 10:57:22;;;;;;;22.63;15.98;;;18.70;12.00;;;;;;5069278;28;20457;-65
2022/03/23 10:59:48;;;;;;;20.58;15.35;;;18.60;10.60;;;;;;5069650;28;20488;-66
2022/03/23 11:02:18;;;;;;;21.98;14.60;;;18.50;13.80;;;;;;5069596;28;20411;-66
2022/03/23 11:04:51;;;;;;;23.08;16.33;;;18.60;15.50;;;;;;5070063;28;20416;-67
2022/03/23 11:07:27;;;;;;;22.73;16.08;;;18.80;18.70;;;;;;5074107;28;20415;-67
2022/03/23 11:18:11;;;;;;;26.75;17.02;;;18.40;13.90;;;;;;5072616;28;20399;-65
2022/03/23 11:20:43;;;;;;;25.30;16.75;;;18.60;13.60;;;;;;5071820;28;20431;-65
2022/03/23 11:23:18;;;;;;;20.15;13.68;;;18.80;16.60;;;;;;5072871;28;20422;-65
2022/03/23 11:25:45;;;;;;;19.75;13.93;;;18.90;11.70;;;;;;5072902;28;20474;-65
2022/03/23 11:28:13;;;;;;;19.95;14.30;;;19.00;12.80;;;;;;5073014;28;20469;-66
2022/03/23 11:30:40;;;;;;;20.27;14.15;;;18.90;12.20;;;;;;5075780;28;20552;-65
2022/03/23 11:33:49;;;;;;;20.30;13.77;;;18.80;11.50;;;;;;5093048;28;20413;-66
2022/03/23 11:36:19;;;;;;;19.88;14.80;;;18.70;11.30;;;;;;5090228;28;20430;-65
2022/03/23 11:38:49;;;;;;;18.23;13.35;;;18.50;5.50;;;;;;5092149;28;20512;-66
2022/03/23 11:41:17;;;;;;;20.63;15.52;;;18.60;10.40;;;;;;5092340;28;20425;-64
2022/03/23 11:43:44;;;;;;;23.88;16.00;;;19.00;11.40;;;;;;5092165;28;20904;-67
2022/03/23 11:46:11;;;;;;;22.83;15.73;;;18.90;11.20;;;;;;5091919;28;20914;-66
2022/03/23 11:49:08;;;;;;;21.70;15.20;;;19.00;14.80;;;;;;5092253;28;20497;-67
2022/03/23 11:51:57;;;;;;;19.23;14.90;;;19.00;12.40;;;;;;5091625;28;20741;-67
2022/03/23 11:55:36;;;;;;;19.55;15.00;;;19.00;12.90;;;;;;5092410;28;20414;-68
2022/03/23 11:57:18;;;;;;;20.13;14.38;;;19.20;10.50;;;;;;5091396;28;20412;-67
2022/03/23 11:59:45;;;;;;;22.83;15.70;;;19.50;14.00;;;;;;5092268;28;20787;-67
2022/03/23 12:02:12;;;;;;;20.98;15.50;;;19.50;11.10;;;;;;5091391;28;21038;-66
2022/03/23 12:04:38;;;;;;;19.40;14.70;;;19.50;13.70;;;;;;5092091;28;20441;-67
2022/03/23 12:07:07;;;;;;;20.17;14.70;;;19.20;11.20;;;;;;5091607;28;20417;-69
2022/03/23 12:09:36;;;;;;;21.77;15.33;;;19.20;12.30;;;;;;5091564;28;20406;-67
2022/03/23 12:12:05;;;;;;;22.73;15.93;;;19.10;10.10;;;;;;5091708;28;20414;-66
2022/03/23 12:14:34;;;;;;;25.10;16.90;;;18.90;7.40;;;;;;5091616;28;20413;-66
2022/03/23 12:17:09;;;;;;;23.95;16.65;;;18.80;7.70;;;;;;5091296;28;20414;-68
2022/03/23 12:20:12;;;;;;;22.27;16.43;;;18.80;8.90;;;;;;5070868;28;20426;-67
2022/03/23 12:23:09;;;;;;;22.92;16.00;;;19.00;9.70;;;;;;5071223;28;20416;-67
2022/03/23 12:25:41;;;;;;;22.38;15.80;;;19.10;10.00;;;;;;5070992;28;20619;-67
2022/03/23 12:28:32;;;;;;;22.50;16.55;;;19.30;10.20;;;;;;5071019;28;20473;-67
2022/03/23 12:31:08;;;;;;;21.93;15.87;;;19.40;8.60;;;;;;5070605;28;20419;-66
2022/03/23 12:34:01;;;;;;;23.33;16.58;;;19.50;10.70;;;;;;5071276;28;20785;-67
2022/03/23 12:36:56;;;;;;;21.43;16.20;;;19.60;12.80;;;;;;5070775;28;20411;-67
2022/03/23 12:39:36;;;;;;;23.55;16.80;;;19.80;13.40;;;;;;5070680;28;20914;-67
2022/03/23 12:42:26;;;;;;;22.92;16.92;;;19.80;14.20;;;;;;5070837;28;20412;-67
2022/03/23 12:45:05;;;;;;;25.13;17.20;;;19.70;12.50;;;;;;5070456;28;20895;-67
2022/03/23 12:47:33;;;;;;;25.30;17.25;;;19.70;15.60;;;;;;5070645;28;20415;-66
2022/03/23 12:58:35;;;;;;;25.77;16.92;;;19.70;12.30;;;;;;5070749;28;20399;-67
2022/03/23 13:01:14;;;;;;;24.30;17.38;;;19.50;14.30;;;;;;5069574;28;20427;-66
2022/03/23 13:03:56;;;;;;;24.85;17.65;;;19.70;14.50;;;;;;5070375;28;20418;-66
2022/03/23 13:06:38;;;;;;;23.95;17.15;;;20.00;13.20;;;;;;5070004;28;20430;-66
2022/03/23 13:09:10;;;;;;;23.90;18.50;;;19.70;13.30;;;;;;5070447;28;20425;-67
2022/03/23 13:11:39;;;;;;;24.83;17.92;;;19.30;9.10;;;;;;5069815;28;20502;-66
2022/03/23 13:14:07;;;;;;;24.60;18.40;;;19.50;11.50;;;;;;5070002;28;20506;-67
2022/03/23 13:16:38;;;;;;;27.92;18.98;;;19.70;13.00;;;;;;5070255;28;20819;-67
2022/03/23 13:19:06;;;;;;;33.13;18.90;;;19.90;15.50;;;;;;5070190;28;20827;-66
2022/03/23 13:21:34;;;;;;;25.50;18.77;;;20.00;17.70;;;;;;5069741;28;20443;-66
2022/03/23 13:24:04;;;;;;;23.00;16.95;;;20.20;18.70;;;;;;5070496;28;20412;-67
2022/03/23 13:26:33;;;;;;;26.15;17.80;;;20.30;16.00;;;;;;5069224;28;20411;-66
2022/03/23 13:29:06;;;;;;;26.63;18.88;;;20.20;18.40;;;;;;5070008;28;20499;-67